createdAt,value
2023-04-21T00:00:08.156Z,9.02
2023-04-21T00:02:39.831Z,9.03
2023-04-21T00:05:11.481Z,8.98
2023-04-21T00:07:40.597Z,8.98
2023-04-21T00:10:12.175Z,8.96
2023-04-21T00:12:41.597Z,8.93
2023-04-21T00:15:11.274Z,8.93
2023-04-21T00:17:40.745Z,8.96
2023-04-21T00:20:11.663Z,8.96
2023-04-21T00:22:40.118Z,8.93
2023-04-21T00:25:11.338Z,8.95
2023-04-21T00:27:40.040Z,8.86
2023-04-21T00:30:10.694Z,8.93
2023-04-21T00:32:39.473Z,8.94
2023-04-21T00:35:08.718Z,8.85
2023-04-21T00:37:37.038Z,8.93
2023-04-21T00:40:06.243Z,8.97
2023-04-21T00:42:36.218Z,8.82
2023-04-21T00:45:05.159Z,8.86
2023-04-21T00:47:33.892Z,8.83
2023-04-21T00:50:02.511Z,8.75
2023-04-21T00:52:32.221Z,8.78
2023-04-21T00:55:01.648Z,8.81
2023-04-21T00:57:30.483Z,8.75
2023-04-21T01:00:00.485Z,8.82
2023-04-21T01:02:29.787Z,8.77
2023-04-21T01:04:58.426Z,8.79
2023-04-21T01:07:27.336Z,8.73
2023-04-21T01:09:55.628Z,8.74
2023-04-21T01:12:24.001Z,8.74
2023-04-21T01:14:52.864Z,8.70
2023-04-21T01:17:23.654Z,8.72
2023-04-21T01:19:53.253Z,8.65
2023-04-21T01:22:23.628Z,8.58
2023-04-21T01:24:51.938Z,8.61
2023-04-21T01:27:22.508Z,8.57
2023-04-21T01:29:53.969Z,8.49
2023-04-21T01:32:24.574Z,8.48
2023-04-21T01:34:53.177Z,8.52
2023-04-21T01:37:26.402Z,8.51
2023-04-21T01:39:57.000Z,8.47
2023-04-21T01:42:28.591Z,8.47
2023-04-21T01:44:58.506Z,8.42
2023-04-21T01:47:27.939Z,8.39
2023-04-21T01:49:56.727Z,8.35
2023-04-21T01:52:27.437Z,8.37
2023-04-21T01:54:56.878Z,8.36
2023-04-21T01:57:25.746Z,8.30
2023-04-21T01:59:54.669Z,8.26
2023-04-21T02:02:23.310Z,8.27
2023-04-21T02:04:51.918Z,8.23
2023-04-21T02:07:20.409Z,8.29
2023-04-21T02:09:50.340Z,8.24
2023-04-21T02:12:19.071Z,8.24
2023-04-21T02:14:48.416Z,8.16
2023-04-21T02:17:17.825Z,8.17
2023-04-21T02:19:48.290Z,8.15
2023-04-21T02:22:16.884Z,8.14
2023-04-21T02:24:45.676Z,8.09
2023-04-21T02:27:16.345Z,8.11
2023-04-21T02:29:44.719Z,8.06
2023-04-21T02:32:25.017Z,8.05
2023-04-21T02:34:54.300Z,8.10
2023-04-21T02:37:22.868Z,8.12
2023-04-21T02:39:51.643Z,8.12
2023-04-21T02:42:21.661Z,8.11
2023-04-21T02:44:50.668Z,8.05
2023-04-21T02:47:19.352Z,8.03
2023-04-21T02:49:47.881Z,8.04
2023-04-21T02:52:16.252Z,8.01
2023-04-21T02:54:44.675Z,8.02
2023-04-21T02:57:13.695Z,8.01
2023-04-21T02:59:43.592Z,8.02
2023-04-21T03:02:12.325Z,8.00
2023-04-21T03:04:41.005Z,7.98
2023-04-21T03:07:14.040Z,8.00
2023-04-21T03:09:42.789Z,7.98
2023-04-21T03:12:11.627Z,7.97
2023-04-21T03:14:40.466Z,7.96
2023-04-21T03:17:10.483Z,7.99
2023-04-21T03:19:39.003Z,7.98
2023-04-21T03:22:07.738Z,7.93
2023-04-21T03:24:36.733Z,7.93
2023-04-21T03:27:08.770Z,7.95
2023-04-21T03:29:39.391Z,7.96
2023-04-21T03:32:07.913Z,7.97
2023-04-21T03:34:38.024Z,7.97
2023-04-21T03:37:06.379Z,7.95
2023-04-21T03:39:35.803Z,8.00
2023-04-21T03:42:05.081Z,7.96
2023-04-21T03:44:34.455Z,7.96
2023-04-21T03:47:03.868Z,7.94
2023-04-21T03:49:32.472Z,7.91
2023-04-21T03:52:02.473Z,7.93
2023-04-21T03:54:30.984Z,7.98
2023-04-21T03:56:59.507Z,8.00
2023-04-21T03:59:28.066Z,7.98
2023-04-21T04:01:56.685Z,7.98
2023-04-21T04:04:25.585Z,8.00
2023-04-21T04:06:54.505Z,8.06
2023-04-21T04:09:24.485Z,8.09
2023-04-21T04:11:53.065Z,8.10
2023-04-21T04:14:21.319Z,8.08
2023-04-21T04:16:49.754Z,8.09
2023-04-21T04:19:18.414Z,8.10
2023-04-21T04:21:49.096Z,8.09
2023-04-21T04:24:17.687Z,8.07
2023-04-21T04:26:48.260Z,8.13
2023-04-21T04:29:18.307Z,8.09
2023-04-21T04:31:47.119Z,8.11
2023-04-21T04:34:16.029Z,8.14
2023-04-21T04:36:45.026Z,8.15
2023-04-21T04:39:14.084Z,8.22
2023-04-21T04:41:42.886Z,8.22
2023-04-21T04:44:12.910Z,8.24
2023-04-21T04:46:41.543Z,8.30
2023-04-21T04:49:10.078Z,8.31
2023-04-21T04:51:38.882Z,8.28
2023-04-21T04:54:07.802Z,8.29
2023-04-21T04:56:36.966Z,8.26
2023-04-21T04:59:05.380Z,8.20
2023-04-21T05:01:35.679Z,8.22
2023-04-21T05:04:04.197Z,8.19
2023-04-21T05:06:32.960Z,8.18
2023-04-21T05:09:01.354Z,8.12
2023-04-21T05:11:29.602Z,8.10
2023-04-21T05:13:58.922Z,8.11
2023-04-21T05:16:27.423Z,8.09
2023-04-21T05:18:57.467Z,8.08
2023-04-21T05:21:28.523Z,8.12
2023-04-21T05:23:57.566Z,8.06
2023-04-21T05:26:27.824Z,8.04
2023-04-21T05:28:56.652Z,7.98
2023-04-21T05:31:25.532Z,8.01
2023-04-21T05:33:54.235Z,7.98
2023-04-21T05:36:25.106Z,7.96
2023-04-21T05:38:55.268Z,7.95
2023-04-21T05:41:24.291Z,7.89
2023-04-21T05:43:52.678Z,7.88
2023-04-21T05:46:21.761Z,7.87
2023-04-21T05:48:53.053Z,7.87
2023-04-21T05:51:21.701Z,7.84
2023-04-21T05:53:51.708Z,7.88
2023-04-21T05:56:20.315Z,7.87
2023-04-21T05:58:48.862Z,7.89
2023-04-21T06:01:17.733Z,7.93
2023-04-21T06:03:46.137Z,7.92
2023-04-21T06:06:15.574Z,7.99
2023-04-21T06:08:44.058Z,7.93
2023-04-21T06:11:14.060Z,7.96
2023-04-21T06:13:43.663Z,7.99
2023-04-21T06:16:12.599Z,8.05
2023-04-21T06:18:41.295Z,8.19
2023-04-21T06:21:09.634Z,8.16
2023-04-21T06:23:38.042Z,8.21
2023-04-21T06:26:08.056Z,8.27
2023-04-21T06:28:39.607Z,8.30
2023-04-21T06:31:10.026Z,8.34
2023-04-21T06:33:38.518Z,8.45
2023-04-21T06:36:07.986Z,8.46
2023-04-21T06:38:36.602Z,8.62
2023-04-21T06:41:06.199Z,8.61
2023-04-21T06:43:34.852Z,8.63
2023-04-21T06:46:04.644Z,8.61
2023-04-21T06:48:33.607Z,8.62
2023-04-21T06:51:03.196Z,8.65
2023-04-21T06:53:31.795Z,8.76
2023-04-21T06:56:00.454Z,8.67
2023-04-21T06:58:28.781Z,8.64
2023-04-21T07:00:57.302Z,8.67
2023-04-21T07:03:27.530Z,8.61
2023-04-21T07:05:55.952Z,8.62
2023-04-21T07:08:24.919Z,8.58
2023-04-21T07:10:53.653Z,8.63
2023-04-21T07:13:22.297Z,8.64
2023-04-21T07:15:51.091Z,8.65
2023-04-21T07:18:19.862Z,8.70
2023-04-21T07:20:50.142Z,8.73
2023-04-21T07:23:18.657Z,8.77
2023-04-21T07:25:47.198Z,8.82
2023-04-21T07:28:16.404Z,8.86
2023-04-21T07:30:45.160Z,8.89
2023-04-21T07:33:13.577Z,8.94
2023-04-21T07:35:42.045Z,8.91
2023-04-21T07:38:12.197Z,8.92
2023-04-21T07:40:40.796Z,8.89
2023-04-21T07:43:09.292Z,8.90
2023-04-21T07:45:37.710Z,8.95
2023-04-21T07:48:06.961Z,8.99
2023-04-21T07:50:36.598Z,9.04
2023-04-21T07:53:05.490Z,9.27
2023-04-21T07:55:37.396Z,9.27
2023-04-21T07:58:07.028Z,9.40
2023-04-21T08:00:35.682Z,9.59
2023-04-21T08:03:04.261Z,9.80
2023-04-21T08:05:36.620Z,9.70
2023-04-21T08:08:07.625Z,9.51
2023-04-21T08:10:37.697Z,9.58
2023-04-21T08:13:06.832Z,9.53
2023-04-21T08:15:36.260Z,9.71
2023-04-21T08:18:04.923Z,9.75
2023-04-21T08:20:36.746Z,9.87
2023-04-21T08:23:05.448Z,9.98
2023-04-21T08:25:34.374Z,10.16
2023-04-21T08:28:04.593Z,10.10
2023-04-21T08:30:33.470Z,9.99
2023-04-21T08:33:01.920Z,9.66
2023-04-21T08:35:30.374Z,9.64
2023-04-21T08:37:58.764Z,9.55
2023-04-21T08:40:33.831Z,9.70
2023-04-21T08:43:03.679Z,9.87
2023-04-21T08:45:32.924Z,9.98
2023-04-21T08:48:02.556Z,10.15
2023-04-21T08:50:33.051Z,10.27
2023-04-21T08:53:01.826Z,10.19
2023-04-21T08:55:32.341Z,10.14
2023-04-21T08:58:00.765Z,10.16
2023-04-21T09:00:30.826Z,10.27
2023-04-21T09:03:02.434Z,10.34
2023-04-21T09:05:33.612Z,10.29
2023-04-21T09:08:13.159Z,10.26
2023-04-21T09:10:46.931Z,10.26
2023-04-21T09:13:15.844Z,10.16
2023-04-21T09:15:47.339Z,10.24
2023-04-21T09:18:17.497Z,10.31
2023-04-21T09:20:48.349Z,10.12
2023-04-21T09:23:17.774Z,10.02
2023-04-21T09:25:47.169Z,10.11
2023-04-21T09:28:16.614Z,10.24
2023-04-21T09:30:46.944Z,10.33
2023-04-21T09:33:28.012Z,10.54
2023-04-21T09:35:57.891Z,10.56
2023-04-21T09:38:26.356Z,10.52
2023-04-21T09:41:03.998Z,10.79
2023-04-21T09:43:32.470Z,10.59
2023-04-21T09:46:07.383Z,10.57
2023-04-21T09:48:38.288Z,10.76
2023-04-21T09:53:41.244Z,11.22
2023-04-21T09:56:13.387Z,11.15
2023-04-21T09:58:54.327Z,10.91
2023-04-21T10:01:28.584Z,10.95
2023-04-21T10:03:57.908Z,11.06
2023-04-21T10:06:26.807Z,10.92
2023-04-21T10:08:58.663Z,11.01
2023-04-21T10:11:27.607Z,11.37
2023-04-21T10:13:56.499Z,11.56
2023-04-21T10:16:26.903Z,11.29
2023-04-21T10:18:55.504Z,11.17
2023-04-21T10:21:24.730Z,11.16
2023-04-21T10:23:54.986Z,11.26
2023-04-21T10:26:25.692Z,11.29
2023-04-21T10:28:56.416Z,11.28
2023-04-21T10:31:31.924Z,11.16
2023-04-21T10:34:18.314Z,11.07
2023-04-21T10:37:13.358Z,11.21
2023-04-21T10:39:48.416Z,11.17
2023-04-21T10:42:27.759Z,11.27
2023-04-21T10:45:10.345Z,11.80
2023-04-21T10:47:43.122Z,12.02
2023-04-21T10:50:20.741Z,11.98
2023-04-21T10:52:55.970Z,11.91
2023-04-21T10:55:27.257Z,11.89
2023-04-21T10:57:55.801Z,12.21
2023-04-21T11:00:26.047Z,12.63
2023-04-21T11:03:01.240Z,12.30
2023-04-21T11:05:36.614Z,12.64
2023-04-21T11:08:15.672Z,12.90
2023-04-21T11:10:56.394Z,12.95
2023-04-21T11:13:26.737Z,12.72
2023-04-21T11:16:12.806Z,12.79
2023-04-21T11:18:44.821Z,12.96
2023-04-21T11:21:18.695Z,13.05
2023-04-21T11:23:51.939Z,13.25
2023-04-21T11:26:30.989Z,13.31
2023-04-21T11:29:02.679Z,13.25
2023-04-21T11:31:31.726Z,13.49
2023-04-21T11:34:02.716Z,13.72
2023-04-21T11:36:31.137Z,13.61
2023-04-21T11:38:59.848Z,13.42
2023-04-21T11:41:28.829Z,13.56
2023-04-21T11:43:57.208Z,13.80
2023-04-21T11:46:27.801Z,13.52
2023-04-21T11:49:05.904Z,13.60
2023-04-21T11:51:36.271Z,13.72
2023-04-21T11:54:07.201Z,13.60
2023-04-21T11:56:38.400Z,14.28
2023-04-21T11:59:11.029Z,13.83
2023-04-21T12:01:45.055Z,13.75
2023-04-21T12:04:18.403Z,14.07
2023-04-21T12:06:47.680Z,13.87
2023-04-21T12:09:20.340Z,14.39
2023-04-21T12:11:50.814Z,14.63
2023-04-21T12:14:20.912Z,14.12
2023-04-21T12:16:51.670Z,14.09
2023-04-21T12:19:27.062Z,14.03
2023-04-21T12:21:57.134Z,14.43
2023-04-21T12:24:26.332Z,14.41
2023-04-21T12:26:55.441Z,14.73
2023-04-21T12:29:23.752Z,14.63
2023-04-21T12:31:52.348Z,14.36
2023-04-21T12:34:20.691Z,14.22
2023-04-21T12:36:51.262Z,14.20
2023-04-21T12:39:20.800Z,14.34
2023-04-21T12:41:49.355Z,14.37
2023-04-21T12:44:18.123Z,14.46
2023-04-21T12:46:46.553Z,14.20
2023-04-21T12:49:15.929Z,14.32
2023-04-21T12:51:45.287Z,14.70
2023-04-21T12:54:15.774Z,14.14
2023-04-21T12:56:44.829Z,14.26
2023-04-21T12:59:13.738Z,14.47
2023-04-21T13:01:43.705Z,14.82
2023-04-21T13:04:12.384Z,14.98
2023-04-21T13:06:41.084Z,14.63
2023-04-21T13:09:10.018Z,15.08
2023-04-21T13:11:40.137Z,15.31
2023-04-21T13:14:09.335Z,14.62
2023-04-21T13:16:38.397Z,14.59
2023-04-21T13:19:06.929Z,14.71
2023-04-21T13:21:35.593Z,15.05
2023-04-21T13:24:04.120Z,15.06
2023-04-21T13:26:35.438Z,14.59
2023-04-21T13:29:05.842Z,14.65
2023-04-21T13:31:34.200Z,15.08
2023-04-21T13:34:03.115Z,15.10
2023-04-21T13:36:32.682Z,14.71
2023-04-21T13:39:01.860Z,14.86
2023-04-21T13:41:30.521Z,15.38
2023-04-21T13:43:59.108Z,15.57
2023-04-21T13:46:29.866Z,15.94
2023-04-21T13:48:59.597Z,15.91
2023-04-21T13:51:28.180Z,15.93
2023-04-21T13:53:56.707Z,15.89
2023-04-21T13:56:26.092Z,16.27
2023-04-21T13:58:55.622Z,16.45
2023-04-21T14:01:25.267Z,16.40
2023-04-21T14:03:55.519Z,16.76
2023-04-21T14:06:24.165Z,16.56
2023-04-21T14:08:52.846Z,17.30
2023-04-21T14:11:21.835Z,17.51
2023-04-21T14:14:07.529Z,17.09
2023-04-21T14:16:37.380Z,17.69
2023-04-21T14:19:07.563Z,17.89
2023-04-21T14:21:36.311Z,17.80
2023-04-21T14:24:05.443Z,17.06
2023-04-21T14:26:34.136Z,17.26
2023-04-21T14:29:03.854Z,16.80
2023-04-21T14:31:32.464Z,16.48
2023-04-21T14:34:01.949Z,16.31
2023-04-21T14:36:33.072Z,16.63
2023-04-21T14:39:01.607Z,16.07
2023-04-21T14:41:30.110Z,15.57
2023-04-21T14:44:00.550Z,15.43
2023-04-21T14:46:29.787Z,15.35
2023-04-21T14:48:58.504Z,14.98
2023-04-21T14:51:27.211Z,14.88
2023-04-21T14:53:57.644Z,14.94
2023-04-21T14:56:26.110Z,14.77
2023-04-21T14:58:54.955Z,14.22
2023-04-21T15:01:25.827Z,13.97
2023-04-21T15:03:58.004Z,14.03
2023-04-21T15:08:58.610Z,14.22
2023-04-21T15:11:27.395Z,13.97
2023-04-21T15:13:57.294Z,14.33
2023-04-21T15:16:27.053Z,14.19
2023-04-21T15:18:56.977Z,14.71
2023-04-21T15:21:27.633Z,14.83
2023-04-21T15:23:57.700Z,14.24
2023-04-21T15:26:26.954Z,13.96
2023-04-21T15:28:55.934Z,13.64
2023-04-21T15:31:25.476Z,13.37
2023-04-21T15:33:54.045Z,13.16
2023-04-21T15:36:22.424Z,13.21
2023-04-21T15:38:51.067Z,13.40
2023-04-21T15:41:29.855Z,13.44
2023-04-21T15:43:58.363Z,13.19
2023-04-21T15:46:29.096Z,13.29
2023-04-21T15:48:58.649Z,13.58
2023-04-21T15:51:38.419Z,13.75
2023-04-21T15:54:10.934Z,13.70
2023-04-21T15:56:42.033Z,13.98
2023-04-21T15:59:12.726Z,13.93
2023-04-21T16:01:49.795Z,14.07
2023-04-21T16:04:20.939Z,14.29
2023-04-21T16:06:52.121Z,14.67
2023-04-21T16:09:26.721Z,14.49
2023-04-21T16:14:28.083Z,15.36
2023-04-21T16:16:58.843Z,15.86
2023-04-21T16:19:29.477Z,15.14
2023-04-21T16:22:07.254Z,14.66
2023-04-21T16:24:36.347Z,14.42
2023-04-21T16:27:08.237Z,14.15
2023-04-21T16:29:37.796Z,13.58
2023-04-21T16:32:08.465Z,13.69
2023-04-21T16:34:37.399Z,14.56
2023-04-21T16:37:06.668Z,15.29
2023-04-21T16:39:36.101Z,15.02
2023-04-21T16:42:08.314Z,14.52
2023-04-21T16:44:38.972Z,14.71
2023-04-21T16:47:08.353Z,14.73
2023-04-21T16:49:37.048Z,14.78
2023-04-21T16:52:08.588Z,15.02
2023-04-21T16:54:38.279Z,15.23
2023-04-21T16:57:11.745Z,14.90
2023-04-21T16:59:41.108Z,13.78
2023-04-21T17:02:09.796Z,14.43
2023-04-21T17:04:41.774Z,15.49
2023-04-21T17:07:12.686Z,16.41
2023-04-21T17:09:41.231Z,16.35
2023-04-21T17:12:12.784Z,16.50
2023-04-21T17:14:42.724Z,16.72
2023-04-21T17:17:17.321Z,16.63
2023-04-21T17:19:45.828Z,16.56
2023-04-21T17:22:14.446Z,16.93
2023-04-21T17:24:53.107Z,15.59
2023-04-21T17:27:24.935Z,15.46
2023-04-21T17:29:54.719Z,15.78
2023-04-21T17:32:23.330Z,16.84
2023-04-21T17:34:52.494Z,17.02
2023-04-21T17:37:22.356Z,18.12
2023-04-21T17:39:50.934Z,15.95
2023-04-21T17:42:19.455Z,15.40
2023-04-21T17:44:50.053Z,15.36
2023-04-21T17:47:18.903Z,14.42
2023-04-21T17:49:49.281Z,13.71
2023-04-21T17:52:18.788Z,14.97
2023-04-21T17:54:47.388Z,15.84
2023-04-21T17:57:17.110Z,15.84
2023-04-21T17:59:45.912Z,16.26
2023-04-21T18:02:22.402Z,16.32
2023-04-21T18:04:51.537Z,16.08
2023-04-21T18:07:21.571Z,15.17
2023-04-21T18:09:56.746Z,14.30
2023-04-21T18:12:26.170Z,14.35
2023-04-21T18:14:55.194Z,15.51
2023-04-21T18:17:25.199Z,15.90
2023-04-21T18:19:53.575Z,15.62
2023-04-21T18:22:22.566Z,15.21
2023-04-21T18:24:51.307Z,14.35
2023-04-21T18:27:20.250Z,14.21
2023-04-21T18:29:48.723Z,14.49
2023-04-21T18:32:17.505Z,13.84
2023-04-21T18:34:47.576Z,13.54
2023-04-21T18:37:16.117Z,12.74
2023-04-21T18:39:44.515Z,12.50
2023-04-21T18:42:13.667Z,12.46
2023-04-21T18:44:42.149Z,12.30
2023-04-21T18:47:10.753Z,12.44
2023-04-21T18:49:39.309Z,12.25
2023-04-21T18:52:09.499Z,12.27
2023-04-21T18:54:38.062Z,12.16
2023-04-21T18:57:08.688Z,12.24
2023-04-21T18:59:37.431Z,12.32
2023-04-21T19:02:07.750Z,12.21
2023-04-21T19:04:36.517Z,12.14
2023-04-21T19:07:08.557Z,12.08
2023-04-21T19:09:40.024Z,12.10
2023-04-21T19:12:08.691Z,11.87
2023-04-21T19:14:46.447Z,11.89
2023-04-21T19:17:15.745Z,11.79
2023-04-21T19:19:44.438Z,11.73
2023-04-21T19:22:13.945Z,11.56
2023-04-21T19:24:43.767Z,11.52
2023-04-21T19:27:12.757Z,11.59
2023-04-21T19:29:41.827Z,11.44
2023-04-21T19:32:10.320Z,11.54
2023-04-21T19:34:39.362Z,11.33
2023-04-21T19:37:08.537Z,11.18
2023-04-21T19:39:36.809Z,11.35
2023-04-21T19:42:09.391Z,11.33
2023-04-21T19:44:40.129Z,11.25
2023-04-21T19:47:08.662Z,11.25
2023-04-21T19:49:37.278Z,11.28
2023-04-21T19:52:06.161Z,11.14
2023-04-21T19:54:34.783Z,11.25
2023-04-21T19:57:04.418Z,11.03
2023-04-21T19:59:35.288Z,10.96
2023-04-21T20:02:06.569Z,11.23
2023-04-21T20:04:37.930Z,10.98
2023-04-21T20:07:07.024Z,11.03
2023-04-21T20:09:35.587Z,10.96
2023-04-21T20:12:05.743Z,10.97
2023-04-21T20:14:36.021Z,10.90
2023-04-21T20:17:05.858Z,10.93
2023-04-21T20:19:40.692Z,11.03
2023-04-21T20:22:11.634Z,11.05
2023-04-21T20:24:39.981Z,11.05
2023-04-21T20:27:08.989Z,11.03
2023-04-21T20:29:39.370Z,10.99
2023-04-21T20:32:08.187Z,10.96
2023-04-21T20:34:37.907Z,10.93
2023-04-21T20:37:08.200Z,10.88
2023-04-21T20:39:38.459Z,10.78
2023-04-21T20:42:13.391Z,10.86
2023-04-21T20:44:56.958Z,10.78
2023-04-21T20:47:25.696Z,10.61
2023-04-21T20:50:10.699Z,10.69
2023-04-21T20:52:45.149Z,10.74
2023-04-21T20:55:13.658Z,10.63
2023-04-21T20:57:44.082Z,10.61
2023-04-21T21:00:15.903Z,10.66
2023-04-21T21:02:45.868Z,10.58
2023-04-21T21:05:24.642Z,10.58
2023-04-21T21:08:09.348Z,10.48
2023-04-21T21:10:39.992Z,10.48
2023-04-21T21:13:09.549Z,10.44
2023-04-21T21:15:47.108Z,10.43
2023-04-21T21:18:15.789Z,10.45
2023-04-21T21:20:50.447Z,10.40
2023-04-21T21:23:20.108Z,10.41
2023-04-21T21:25:49.055Z,10.34
2023-04-21T21:28:17.468Z,10.36
2023-04-21T21:30:48.980Z,10.39
2023-04-21T21:33:17.764Z,10.24
2023-04-21T21:35:53.632Z,10.26
2023-04-21T21:38:26.053Z,10.24
2023-04-21T21:40:57.342Z,10.19
2023-04-21T21:43:33.828Z,10.15
2023-04-21T21:46:07.255Z,10.16
2023-04-21T21:48:35.879Z,10.13
2023-04-21T21:51:12.384Z,10.14
2023-04-21T21:53:42.050Z,10.12
2023-04-21T21:56:10.722Z,10.13
2023-04-21T21:58:40.687Z,10.16
2023-04-21T22:01:11.812Z,10.07
2023-04-21T22:03:47.592Z,10.03
2023-04-21T22:06:17.293Z,10.07
2023-04-21T22:08:46.095Z,10.07
2023-04-21T22:11:23.784Z,10.06
2023-04-21T22:13:54.766Z,9.97
2023-04-21T22:16:29.038Z,10.01
2023-04-21T22:19:06.030Z,10.03
2023-04-21T22:21:36.731Z,10.02
2023-04-21T22:24:07.861Z,10.02
2023-04-21T22:26:38.233Z,10.04
2023-04-21T22:29:13.048Z,10.05
2023-04-21T22:31:44.770Z,10.05
2023-04-21T22:34:16.937Z,9.99
2023-04-21T22:36:52.328Z,10.04
2023-04-21T22:39:21.970Z,10.04
2023-04-21T22:41:55.955Z,10.03
2023-04-21T22:44:25.971Z,10.01
2023-04-21T22:46:57.237Z,10.01
2023-04-21T22:49:26.395Z,10.00
2023-04-21T22:51:59.309Z,10.07
2023-04-21T22:54:31.443Z,10.05
2023-04-21T22:57:00.507Z,10.06
2023-04-21T22:59:29.344Z,10.01
2023-04-21T23:02:06.454Z,10.01
2023-04-21T23:04:44.551Z,9.98
2023-04-21T23:07:25.235Z,10.09
2023-04-21T23:09:55.157Z,9.99
2023-04-21T23:12:24.985Z,9.90
2023-04-21T23:14:55.810Z,10.02
2023-04-21T23:17:26.228Z,9.94
2023-04-21T23:19:55.867Z,9.92
2023-04-21T23:22:26.033Z,9.91
2023-04-21T23:24:54.899Z,9.90
2023-04-21T23:27:24.652Z,9.86
2023-04-21T23:30:03.373Z,9.87
2023-04-21T23:32:36.902Z,9.81
2023-04-21T23:35:05.763Z,9.77
2023-04-21T23:37:48.913Z,9.71
2023-04-21T23:40:24.170Z,9.70
2023-04-21T23:42:53.808Z,9.80
2023-04-21T23:45:23.697Z,9.86
2023-04-21T23:47:53.583Z,9.86
2023-04-21T23:50:41.799Z,9.80
2023-04-21T23:53:12.838Z,9.84
2023-04-21T23:55:41.431Z,9.88
2023-04-21T23:58:11.555Z,9.76
